createdAt,value
2023-04-16T00:00:40.831Z,98.80
2023-04-16T00:04:42.804Z,98.70
2023-04-16T00:08:44.951Z,98.80
2023-04-16T00:12:46.882Z,98.80
2023-04-16T00:16:49.901Z,98.80
2023-04-16T00:20:53.392Z,98.80
2023-04-16T00:24:55.518Z,98.70
2023-04-16T00:28:57.491Z,98.80
2023-04-16T00:32:59.813Z,99.00
2023-04-16T00:37:01.653Z,99.30
2023-04-16T00:41:03.814Z,99.50
2023-04-16T00:45:06.306Z,99.60
2023-04-16T00:49:08.543Z,99.60
2023-04-16T00:53:10.940Z,99.70
2023-04-16T00:57:14.678Z,99.50
2023-04-16T01:01:16.981Z,99.40
2023-04-16T01:05:19.253Z,99.30
2023-04-16T01:09:21.284Z,99.40
2023-04-16T01:13:23.218Z,99.60
2023-04-16T01:17:25.058Z,99.70
2023-04-16T01:21:27.493Z,99.60
2023-04-16T01:25:29.513Z,99.40
2023-04-16T01:29:31.631Z,99.40
2023-04-16T01:33:34.683Z,99.40
2023-04-16T01:37:36.593Z,99.30
2023-04-16T01:41:38.564Z,99.30
2023-04-16T01:45:40.472Z,99.50
2023-04-16T01:49:45.508Z,99.40
2023-04-16T01:53:47.559Z,99.40
2023-04-16T01:57:50.791Z,99.40
2023-04-16T02:01:54.271Z,99.40
2023-04-16T02:05:56.631Z,99.40
2023-04-16T02:09:58.524Z,99.60
2023-04-16T02:14:00.364Z,99.40
2023-04-16T02:18:02.524Z,99.70
2023-04-16T02:22:05.313Z,99.70
2023-04-16T02:26:07.321Z,99.60
2023-04-16T02:30:10.745Z,99.50
2023-04-16T02:34:13.441Z,99.60
2023-04-16T02:38:16.151Z,99.60
2023-04-16T02:42:18.031Z,99.70
2023-04-16T02:46:20.066Z,99.60
2023-04-16T02:50:22.085Z,99.70
2023-04-16T02:54:24.167Z,99.80
2023-04-16T02:58:26.607Z,99.80
2023-04-16T03:02:28.852Z,99.90
2023-04-16T03:06:31.578Z,99.90
2023-04-16T03:10:34.993Z,99.90
2023-04-16T03:14:36.787Z,99.80
2023-04-16T03:18:38.551Z,99.60
2023-04-16T03:22:40.981Z,99.70
2023-04-16T03:26:43.144Z,99.90
2023-04-16T03:30:53.397Z,99.80
2023-04-16T03:34:55.406Z,99.90
2023-04-16T03:38:57.399Z,99.80
2023-04-16T03:42:59.414Z,99.90
2023-04-16T03:47:03.355Z,99.90
2023-04-16T03:51:05.848Z,99.90
2023-04-16T03:55:09.108Z,99.90
2023-04-16T03:59:11.586Z,99.90
2023-04-16T04:03:17.259Z,99.90
2023-04-16T04:07:21.355Z,99.90
2023-04-16T04:11:23.626Z,99.90
2023-04-16T04:15:27.560Z,99.90
2023-04-16T04:19:30.037Z,99.90
2023-04-16T04:23:32.710Z,99.90
2023-04-16T04:27:34.748Z,99.90
2023-04-16T04:31:37.852Z,99.90
2023-04-16T04:35:40.063Z,99.90
2023-04-16T04:39:43.989Z,99.90
2023-04-16T04:43:47.436Z,99.90
2023-04-16T04:47:49.812Z,99.90
2023-04-16T04:51:52.334Z,99.90
2023-04-16T04:55:58.664Z,99.90
2023-04-16T05:00:08.851Z,99.90
2023-04-16T05:04:23.664Z,99.90
2023-04-16T05:08:25.766Z,99.90
2023-04-16T05:12:27.668Z,99.90
2023-04-16T05:16:29.796Z,99.90
2023-04-16T05:20:31.646Z,99.90
2023-04-16T05:24:33.765Z,99.90
2023-04-16T05:28:35.763Z,99.90
2023-04-16T05:32:39.375Z,99.90
2023-04-16T05:36:41.378Z,99.90
2023-04-16T05:40:43.399Z,99.90
2023-04-16T05:44:45.656Z,99.90
2023-04-16T05:48:47.668Z,99.90
2023-04-16T05:52:49.665Z,99.90
2023-04-16T05:56:51.591Z,99.90
2023-04-16T06:00:53.597Z,99.90
2023-04-16T06:04:55.860Z,99.90
2023-04-16T06:08:57.856Z,99.90
2023-04-16T06:12:59.905Z,99.90
2023-04-16T06:17:01.816Z,99.90
2023-04-16T06:21:04.583Z,99.90
2023-04-16T06:25:07.049Z,99.90
2023-04-16T06:29:09.210Z,99.90
2023-04-16T06:33:11.158Z,99.90
2023-04-16T06:37:13.419Z,99.90
2023-04-16T06:41:15.665Z,99.90
2023-04-16T06:45:18.074Z,99.90
2023-04-16T06:49:20.317Z,99.90
2023-04-16T06:53:23.694Z,99.90
2023-04-16T06:57:25.777Z,99.90
2023-04-16T07:01:28.376Z,99.90
2023-04-16T07:05:30.485Z,99.90
2023-04-16T07:09:32.501Z,99.90
2023-04-16T07:13:34.485Z,99.90
2023-04-16T07:17:36.340Z,99.90
2023-04-16T07:21:38.199Z,99.90
2023-04-16T07:25:42.380Z,99.90
2023-04-16T07:29:45.887Z,99.90
2023-04-16T07:33:47.748Z,99.90
2023-04-16T07:37:49.614Z,99.90
2023-04-16T07:41:51.590Z,99.90
2023-04-16T07:45:53.398Z,99.90
2023-04-16T07:49:55.393Z,99.90
2023-04-16T07:53:57.528Z,99.90
2023-04-16T07:57:59.581Z,99.90
2023-04-16T08:02:01.989Z,99.90
2023-04-16T08:06:04.191Z,99.90
2023-04-16T08:10:06.761Z,99.90
2023-04-16T08:14:08.918Z,99.90
2023-04-16T08:18:15.483Z,99.90
2023-04-16T08:22:17.478Z,99.90
2023-04-16T08:26:19.781Z,99.90
2023-04-16T08:30:22.253Z,99.90
2023-04-16T08:34:24.336Z,99.90
2023-04-16T08:38:26.485Z,99.90
2023-04-16T08:42:32.541Z,99.90
2023-04-16T08:46:37.846Z,99.90
2023-04-16T08:50:41.246Z,99.90
2023-04-16T08:54:56.828Z,99.90
2023-04-16T08:59:02.030Z,99.90
2023-04-16T09:03:04.745Z,99.90
2023-04-16T09:07:08.868Z,99.90
2023-04-16T09:11:12.081Z,99.90
2023-04-16T09:15:14.499Z,99.90
2023-04-16T09:19:16.454Z,99.90
2023-04-16T09:23:18.621Z,99.90
2023-04-16T09:27:23.756Z,99.90
2023-04-16T09:31:27.543Z,99.90
2023-04-16T09:35:45.937Z,99.90
2023-04-16T09:40:01.613Z,99.90
2023-04-16T09:44:05.319Z,99.90
2023-04-16T09:48:07.447Z,99.90
2023-04-16T09:52:15.245Z,99.90
2023-04-16T09:56:17.317Z,99.90
2023-04-16T10:00:19.669Z,99.90
2023-04-16T10:04:22.415Z,99.90
2023-04-16T10:08:24.744Z,99.90
2023-04-16T10:12:29.645Z,99.90
2023-04-16T10:16:33.039Z,99.90
2023-04-16T10:20:35.536Z,99.90
2023-04-16T10:24:38.311Z,99.90
2023-04-16T10:28:41.668Z,99.90
2023-04-16T10:32:44.680Z,99.90
2023-04-16T10:36:52.437Z,99.90
2023-04-16T10:41:03.464Z,99.90
2023-04-16T10:45:05.946Z,99.90
2023-04-16T10:49:19.180Z,99.90
2023-04-16T10:53:25.685Z,99.90
2023-04-16T10:57:29.282Z,99.90
2023-04-16T11:01:36.444Z,99.90
2023-04-16T11:05:47.010Z,99.90
2023-04-16T11:09:59.772Z,99.90
2023-04-16T11:14:04.985Z,99.90
2023-04-16T11:18:07.114Z,99.90
2023-04-16T11:22:13.000Z,99.90
2023-04-16T11:26:26.036Z,99.90
2023-04-16T11:30:31.081Z,99.90
2023-04-16T11:34:33.190Z,99.90
2023-04-16T11:38:37.275Z,99.90
2023-04-16T11:42:40.856Z,99.90
2023-04-16T11:46:43.117Z,99.90
2023-04-16T11:50:54.788Z,99.90
2023-04-16T11:54:58.200Z,99.90
2023-04-16T11:59:29.358Z,99.90
2023-04-16T12:03:44.355Z,99.90
2023-04-16T12:07:46.622Z,99.90
2023-04-16T12:11:48.621Z,99.90
2023-04-16T12:15:55.938Z,99.90
2023-04-16T12:19:59.853Z,99.90
2023-04-16T12:24:01.894Z,99.90
2023-04-16T12:28:04.508Z,99.90
2023-04-16T12:32:21.323Z,99.90
2023-04-16T12:36:24.586Z,99.90
2023-04-16T12:40:26.738Z,99.90
2023-04-16T12:44:29.495Z,99.90
2023-04-16T12:48:32.571Z,99.90
2023-04-16T12:52:35.128Z,99.90
2023-04-16T12:56:37.178Z,99.90
2023-04-16T13:00:39.951Z,99.90
2023-04-16T13:04:42.154Z,99.90
2023-04-16T13:08:44.954Z,99.90
2023-04-16T13:12:46.997Z,99.90
2023-04-16T13:16:49.097Z,99.90
2023-04-16T13:20:51.120Z,99.90
2023-04-16T13:24:53.162Z,99.90
2023-04-16T13:28:55.225Z,99.90
2023-04-16T13:32:57.437Z,99.90
2023-04-16T13:36:59.451Z,99.90
2023-04-16T13:41:01.456Z,99.90
2023-04-16T13:45:04.039Z,99.90
2023-04-16T13:49:07.010Z,99.90
2023-04-16T13:53:09.059Z,99.90
2023-04-16T13:57:11.264Z,99.90
2023-04-16T14:01:13.187Z,99.90
2023-04-16T14:05:15.621Z,99.90
2023-04-16T14:09:17.624Z,99.90
2023-04-16T14:13:19.667Z,99.90
2023-04-16T14:17:21.591Z,99.90
2023-04-16T14:21:23.952Z,99.90
2023-04-16T14:25:26.224Z,99.90
2023-04-16T14:29:28.299Z,99.90
2023-04-16T14:33:31.095Z,99.90
2023-04-16T14:37:35.809Z,99.90
2023-04-16T14:41:37.812Z,99.90
2023-04-16T14:45:39.852Z,99.90
2023-04-16T14:49:41.898Z,99.90
2023-04-16T14:53:44.259Z,99.90
2023-04-16T14:57:46.919Z,99.90
2023-04-16T15:01:49.268Z,99.90
2023-04-16T15:05:55.761Z,99.90
2023-04-16T15:09:57.975Z,99.90
2023-04-16T15:13:59.784Z,99.90
2023-04-16T15:18:01.751Z,99.90
2023-04-16T15:22:04.003Z,99.90
2023-04-16T15:26:06.614Z,99.90
2023-04-16T15:30:09.109Z,99.90
2023-04-16T15:34:11.543Z,99.90
2023-04-16T15:38:13.637Z,99.90
2023-04-16T15:42:16.765Z,99.90
2023-04-16T15:46:18.903Z,99.90
2023-04-16T15:50:20.894Z,99.90
2023-04-16T15:54:23.330Z,99.90
2023-04-16T15:58:25.733Z,99.90
2023-04-16T16:02:29.828Z,99.90
2023-04-16T16:06:32.643Z,99.90
2023-04-16T16:10:34.683Z,99.90
2023-04-16T16:14:36.947Z,99.90
2023-04-16T16:18:38.977Z,99.90
2023-04-16T16:22:43.051Z,99.90
2023-04-16T16:26:45.199Z,99.90
2023-04-16T16:30:47.624Z,99.90
2023-04-16T16:34:49.521Z,99.90
2023-04-16T16:38:51.591Z,99.90
2023-04-16T16:42:53.743Z,99.90
2023-04-16T16:46:55.869Z,99.90
2023-04-16T16:50:57.835Z,99.90
2023-04-16T16:55:00.146Z,99.90
2023-04-16T16:59:02.319Z,99.90
2023-04-16T17:03:04.298Z,99.90
2023-04-16T17:07:06.466Z,99.90
2023-04-16T17:11:08.614Z,99.90
2023-04-16T17:15:10.811Z,99.90
2023-04-16T17:19:13.125Z,99.90
2023-04-16T17:23:15.309Z,99.90
2023-04-16T17:27:17.472Z,99.90
2023-04-16T17:31:19.533Z,99.90
2023-04-16T17:35:21.752Z,99.90
2023-04-16T17:39:23.629Z,99.90
2023-04-16T17:43:25.654Z,99.90
2023-04-16T17:47:27.828Z,99.90
2023-04-16T17:51:31.109Z,99.90
2023-04-16T17:55:33.121Z,99.90
2023-04-16T17:59:35.200Z,99.90
2023-04-16T18:03:38.245Z,99.90
2023-04-16T18:07:40.590Z,99.90
2023-04-16T18:11:42.985Z,99.90
2023-04-16T18:15:45.282Z,99.90
2023-04-16T18:19:47.410Z,99.90
2023-04-16T18:23:49.653Z,99.90
2023-04-16T18:27:51.645Z,99.90
2023-04-16T18:31:55.740Z,99.90
2023-04-16T18:36:01.190Z,99.90
2023-04-16T18:40:05.699Z,99.90
2023-04-16T18:44:07.881Z,99.90
2023-04-16T18:48:09.933Z,99.90
2023-04-16T18:52:12.092Z,99.90
2023-04-16T18:56:14.351Z,99.90
2023-04-16T19:00:16.561Z,99.90
2023-04-16T19:04:18.653Z,99.90
2023-04-16T19:08:20.755Z,99.90
2023-04-16T19:12:23.102Z,99.90
2023-04-16T19:16:25.279Z,99.90
2023-04-16T19:20:27.117Z,99.90
2023-04-16T19:24:29.217Z,99.90
2023-04-16T19:28:31.344Z,99.90
2023-04-16T19:32:33.978Z,99.90
2023-04-16T19:36:36.062Z,99.90
2023-04-16T19:40:38.353Z,99.90
2023-04-16T19:44:40.244Z,99.90
2023-04-16T19:48:42.152Z,99.90
2023-04-16T19:52:44.115Z,99.90
2023-04-16T19:56:46.235Z,99.90
2023-04-16T20:00:48.419Z,99.90
2023-04-16T20:04:50.723Z,99.90
2023-04-16T20:08:53.222Z,99.90
2023-04-16T20:12:55.372Z,99.90
2023-04-16T20:16:57.395Z,99.90
2023-04-16T20:21:03.829Z,99.90
2023-04-16T20:25:07.169Z,99.90
2023-04-16T20:29:10.406Z,99.90
2023-04-16T20:33:12.557Z,99.90
2023-04-16T20:37:15.778Z,99.90
2023-04-16T20:41:21.312Z,99.90
2023-04-16T20:45:24.409Z,99.90
2023-04-16T20:49:26.382Z,99.90
2023-04-16T20:53:28.531Z,99.90
2023-04-16T20:57:31.937Z,99.90
2023-04-16T21:01:34.149Z,99.90
2023-04-16T21:05:36.345Z,99.90
2023-04-16T21:09:38.216Z,99.90
2023-04-16T21:13:40.568Z,99.90
2023-04-16T21:17:42.620Z,99.90
2023-04-16T21:21:44.703Z,99.90
2023-04-16T21:25:46.725Z,99.90
2023-04-16T21:29:48.800Z,99.90
2023-04-16T21:33:50.834Z,99.90
2023-04-16T21:37:52.735Z,99.90
2023-04-16T21:41:54.541Z,99.90
2023-04-16T21:45:56.601Z,99.90
2023-04-16T21:49:58.645Z,99.90
2023-04-16T21:54:01.006Z,99.90
2023-04-16T21:58:03.943Z,99.90
2023-04-16T22:02:06.544Z,99.90
2023-04-16T22:06:08.848Z,99.90
2023-04-16T22:10:13.579Z,99.90
2023-04-16T22:14:17.738Z,99.90
2023-04-16T22:18:19.951Z,99.90
2023-04-16T22:22:22.215Z,99.90
2023-04-16T22:26:24.271Z,99.90
2023-04-16T22:30:26.423Z,99.90
2023-04-16T22:34:28.327Z,99.90
2023-04-16T22:38:30.337Z,99.90
2023-04-16T22:42:32.252Z,99.90
2023-04-16T22:46:34.176Z,99.90
2023-04-16T22:50:36.258Z,99.90
2023-04-16T22:54:38.241Z,99.90
2023-04-16T22:58:40.119Z,99.90
2023-04-16T23:02:42.227Z,99.90
2023-04-16T23:06:44.571Z,99.90
2023-04-16T23:10:46.890Z,99.90
2023-04-16T23:14:48.725Z,99.90
2023-04-16T23:18:50.961Z,99.90
2023-04-16T23:22:52.898Z,99.90
2023-04-16T23:26:54.912Z,99.90
2023-04-16T23:30:56.983Z,99.90
2023-04-16T23:34:59.005Z,99.90
2023-04-16T23:39:00.938Z,99.90
2023-04-16T23:43:02.973Z,99.90
2023-04-16T23:47:05.345Z,99.90
2023-04-16T23:51:07.491Z,99.90
2023-04-16T23:55:09.730Z,99.90
2023-04-16T23:59:11.708Z,99.90
